Time;durP1;ratioP1;P1;durP2;ratioP2;P2;SDS_P1;SDS_P2;PMS_P1;PMS_P2;Temp;Humidity;BMP_temperature;BMP_pressure;BME280_temperature;BME280_humidity;BME280_pressure;Samples;Min_cycle;Max_cycle;Signal;HPM_P1;HPM_P2
2022/05/21 00:02:07;;;;;;;;;;;24.80;60.70;;;;;;4980676;28;19922;-58
2022/05/21 00:04:33;;;;;;;;;;;24.70;60.80;;;;;;5002757;28;19913;-60
2022/05/21 00:06:59;;;;;;;;;;;24.70;60.70;;;;;;4997626;28;20509;-63
2022/05/21 00:09:25;;;;;;;;;;;24.80;60.80;;;;;;4982499;28;19925;-60
2022/05/21 00:11:50;;;;;;;;;;;24.80;60.70;;;;;;4978410;28;19986;-63
2022/05/21 00:14:16;;;;;;;;;;;24.70;60.50;;;;;;5000669;28;19918;-63
2022/05/21 00:16:41;;;;;;;;;;;24.70;60.40;;;;;;4999195;28;19917;-63
2022/05/21 00:19:07;;;;;;;;;;;24.80;60.50;;;;;;4987110;28;19928;-63
2022/05/21 00:21:32;;;;;;;;;;;24.70;60.50;;;;;;4979303;28;20012;-63
2022/05/21 00:23:58;;;;;;;;;;;24.70;60.80;;;;;;4995031;28;19914;-62
2022/05/21 00:26:25;;;;;;;;;;;24.70;60.30;;;;;;4999163;28;19918;-61
2022/05/21 00:28:50;;;;;;;;;;;24.70;60.50;;;;;;4990170;28;19918;-62
2022/05/21 00:31:16;;;;;;;;;;;24.70;60.20;;;;;;4979635;28;19917;-62
2022/05/21 00:33:42;;;;;;;;;;;24.70;60.20;;;;;;4992722;28;19917;-60
2022/05/21 00:36:07;;;;;;;;;;;24.60;60.20;;;;;;4996291;28;20136;-62
2022/05/21 00:38:33;;;;;;;;;;;24.70;60.20;;;;;;4994035;28;19917;-61
2022/05/21 00:40:59;;;;;;;;;;;24.60;59.10;;;;;;4976466;28;19926;-64
2022/05/21 00:43:43;;;;;;;;;;;24.60;60.10;;;;;;4988012;28;20317;-62
2022/05/21 00:46:09;;;;;;;;;;;24.60;60.10;;;;;;4997389;28;19925;-57
2022/05/21 00:48:35;;;;;;;;;;;24.50;59.90;;;;;;4994565;28;19918;-63
2022/05/21 00:51:01;;;;;;;;;;;24.50;60.10;;;;;;4978634;28;19921;-61
2022/05/21 00:53:26;;;;;;;;;;;24.50;59.70;;;;;;4986692;28;19921;-60
2022/05/21 00:55:51;;;;;;;;;;;24.60;59.90;;;;;;4997180;28;19914;-60
2022/05/21 01:01:02;;;;;;;;;;;24.50;60.00;;;;;;4979251;28;19928;-62
2022/05/21 01:03:28;;;;;;;;;;;24.60;59.90;;;;;;4986696;28;19925;-62
2022/05/21 01:05:53;;;;;;;;;;;24.60;60.00;;;;;;4995218;28;21223;-61
2022/05/21 01:08:19;;;;;;;;;;;24.50;59.70;;;;;;5000037;28;19928;-60
2022/05/21 01:10:46;;;;;;;;;;;24.50;57.80;;;;;;4977823;28;19914;-62
2022/05/21 01:13:13;;;;;;;;;;;24.50;60.30;;;;;;4965498;28;20005;-63
2022/05/21 01:15:43;;;;;;;;;;;24.50;59.60;;;;;;4978990;28;19957;-59
2022/05/21 01:18:09;;;;;;;;;;;24.40;59.60;;;;;;5001347;28;19914;-59
2022/05/21 01:20:36;;;;;;;;;;;24.50;59.80;;;;;;4961082;28;19967;-63
2022/05/21 01:23:01;;;;;;;;;;;24.50;60.30;;;;;;4981035;28;20341;-62
2022/05/21 01:25:28;;;;;;;;;;;24.50;59.60;;;;;;4994932;28;19917;-60
2022/05/21 01:27:53;;;;;;;;;;;24.50;59.60;;;;;;5001949;28;19913;-60
2022/05/21 01:30:20;;;;;;;;;;;24.60;58.30;;;;;;4981306;28;19984;-63
2022/05/21 01:32:49;;;;;;;;;;;24.60;59.10;;;;;;4980729;28;20293;-63
2022/05/21 01:35:15;;;;;;;;;;;24.40;58.80;;;;;;4991013;28;19917;-63
2022/05/21 01:37:41;;;;;;;;;;;24.30;59.40;;;;;;5001923;28;19917;-62
2022/05/21 01:40:07;;;;;;;;;;;24.20;59.40;;;;;;4982567;28;20432;-60
2022/05/21 01:42:33;;;;;;;;;;;24.30;59.30;;;;;;4982444;28;19949;-60
2022/05/21 01:44:59;;;;;;;;;;;24.40;59.20;;;;;;4993813;28;20606;-58
2022/05/21 01:47:24;;;;;;;;;;;24.30;59.10;;;;;;4996531;28;19920;-61
2022/05/21 01:49:51;;;;;;;;;;;24.40;59.20;;;;;;4991240;28;20348;-62
2022/05/21 01:52:17;;;;;;;;;;;24.30;59.10;;;;;;4977517;28;19913;-62
2022/05/21 01:54:42;;;;;;;;;;;24.40;59.40;;;;;;4988196;28;20295;-61
2022/05/21 01:57:09;;;;;;;;;;;24.40;57.90;;;;;;4994788;28;19918;-61
2022/05/21 01:59:34;;;;;;;;;;;24.40;58.60;;;;;;4996303;28;20714;-59
2022/05/21 02:02:01;;;;;;;;;;;24.40;58.70;;;;;;4981544;28;19953;-61
2022/05/21 02:04:26;;;;;;;;;;;24.40;58.50;;;;;;4987819;28;20284;-62
2022/05/21 02:06:52;;;;;;;;;;;24.40;58.90;;;;;;5000314;28;19920;-60
2022/05/21 02:09:17;;;;;;;;;;;24.30;58.40;;;;;;5001977;28;20374;-62
2022/05/21 02:11:44;;;;;;;;;;;24.40;58.80;;;;;;4981067;28;19922;-57
2022/05/21 02:14:09;;;;;;;;;;;24.30;57.50;;;;;;4985629;28;20381;-61
2022/05/21 02:16:36;;;;;;;;;;;24.40;58.80;;;;;;5005899;28;19918;-60
2022/05/21 02:19:02;;;;;;;;;;;24.40;59.00;;;;;;5003710;28;20376;-60
2022/05/21 02:21:28;;;;;;;;;;;24.40;58.00;;;;;;4988108;28;19925;-59
2022/05/21 02:23:53;;;;;;;;;;;24.40;58.80;;;;;;4985712;28;19917;-62
2022/05/21 02:26:18;;;;;;;;;;;24.40;57.90;;;;;;5002169;28;19913;-62
2022/05/21 02:28:44;;;;;;;;;;;24.30;58.40;;;;;;5005035;28;19925;-62
2022/05/21 02:31:09;;;;;;;;;;;24.40;58.70;;;;;;4991199;28;20407;-63
2022/05/21 02:33:35;;;;;;;;;;;24.40;58.20;;;;;;4983513;28;19918;-61
2022/05/21 02:36:00;;;;;;;;;;;24.40;58.60;;;;;;4998197;28;19922;-59
2022/05/21 02:41:13;;;;;;;;;;;24.40;58.40;;;;;;5005418;28;20259;-62
2022/05/21 02:43:40;;;;;;;;;;;24.40;58.50;;;;;;5005573;28;19914;-63
2022/05/21 02:46:05;;;;;;;;;;;24.40;58.50;;;;;;4992436;28;19924;-61
2022/05/21 02:48:31;;;;;;;;;;;24.40;58.10;;;;;;4983824;28;19918;-63
2022/05/21 02:50:57;;;;;;;;;;;24.40;58.00;;;;;;4995422;28;20002;-60
2022/05/21 02:53:22;;;;;;;;;;;24.40;58.30;;;;;;5004512;28;19935;-62
2022/05/21 02:55:47;;;;;;;;;;;24.40;57.90;;;;;;4997401;28;19949;-63
2022/05/21 02:58:13;;;;;;;;;;;24.40;56.60;;;;;;4984993;28;19918;-60
2022/05/21 03:00:39;;;;;;;;;;;24.30;58.00;;;;;;4990525;28;19956;-59
2022/05/21 03:03:04;;;;;;;;;;;24.40;58.10;;;;;;5002821;28;20000;-61
2022/05/21 03:05:31;;;;;;;;;;;24.30;57.20;;;;;;5001602;28;19924;-63
2022/05/21 03:07:56;;;;;;;;;;;24.40;58.20;;;;;;4985265;28;20012;-62
2022/05/21 03:10:22;;;;;;;;;;;24.40;58.30;;;;;;4985671;28;19997;-59
2022/05/21 03:12:48;;;;;;;;;;;24.30;58.20;;;;;;5002775;28;20108;-62
2022/05/21 03:15:14;;;;;;;;;;;24.30;58.30;;;;;;5004115;28;20432;-63
2022/05/21 03:17:39;;;;;;;;;;;24.30;58.10;;;;;;4985095;28;19928;-59
2022/05/21 03:20:06;;;;;;;;;;;24.30;58.30;;;;;;4984199;28;19928;-60
2022/05/21 03:22:32;;;;;;;;;;;24.30;57.90;;;;;;5003238;28;20575;-60
2022/05/21 03:24:57;;;;;;;;;;;24.40;57.70;;;;;;5003437;28;19914;-61
2022/05/21 03:27:24;;;;;;;;;;;24.20;57.90;;;;;;4988090;28;19918;-57
2022/05/21 03:29:49;;;;;;;;;;;24.20;57.30;;;;;;4983893;28;20377;-60
2022/05/21 03:32:15;;;;;;;;;;;24.20;57.60;;;;;;4993045;28;19921;-59
2022/05/21 03:34:41;;;;;;;;;;;24.20;57.50;;;;;;4990807;28;19921;-61
2022/05/21 03:37:06;;;;;;;;;;;24.20;57.20;;;;;;4997598;28;19914;-60
2022/05/21 03:39:31;;;;;;;;;;;24.30;57.50;;;;;;5002736;28;20660;-63
2022/05/21 03:41:57;;;;;;;;;;;24.20;56.60;;;;;;4993161;28;19949;-61
2022/05/21 03:44:22;;;;;;;;;;;24.20;57.30;;;;;;4984718;28;19921;-59
2022/05/21 03:46:48;;;;;;;;;;;24.20;56.70;;;;;;4976024;28;19929;-63
2022/05/21 03:49:13;;;;;;;;;;;24.20;54.30;;;;;;5003336;28;19963;-63
2022/05/21 03:51:39;;;;;;;;;;;24.00;57.20;;;;;;4997075;28;19953;-60
2022/05/21 03:54:04;;;;;;;;;;;24.10;56.60;;;;;;4984500;28;19918;-59
2022/05/21 03:56:30;;;;;;;;;;;24.00;56.40;;;;;;4990654;28;19921;-61
2022/05/21 03:58:55;;;;;;;;;;;23.60;56.00;;;;;;5003164;28;19918;-61
2022/05/21 04:01:21;;;;;;;;;;;23.70;57.30;;;;;;5003286;28;20623;-63
2022/05/21 04:03:46;;;;;;;;;;;23.80;56.60;;;;;;5003531;28;19921;-63
2022/05/21 04:06:12;;;;;;;;;;;23.90;57.10;;;;;;5002290;28;19971;-63
2022/05/21 04:08:38;;;;;;;;;;;23.70;54.70;;;;;;4983284;28;20403;-60
2022/05/21 04:11:04;;;;;;;;;;;23.80;55.50;;;;;;4989133;28;20032;-64
2022/05/21 04:13:29;;;;;;;;;;;23.90;56.40;;;;;;5001896;28;19992;-62
2022/05/21 04:15:55;;;;;;;;;;;23.90;56.90;;;;;;5001970;28;19918;-64
2022/05/21 04:18:21;;;;;;;;;;;23.90;56.90;;;;;;5003119;28;20316;-63
2022/05/21 04:20:46;;;;;;;;;;;23.70;53.60;;;;;;5001210;28;19934;-61
2022/05/21 04:23:12;;;;;;;;;;;23.70;56.60;;;;;;4986853;28;19925;-63
2022/05/21 04:25:37;;;;;;;;;;;23.70;55.70;;;;;;4982975;28;19914;-60
2022/05/21 04:28:03;;;;;;;;;;;23.80;56.40;;;;;;4995790;28;19917;-64
2022/05/21 04:30:28;;;;;;;;;;;23.70;55.80;;;;;;5002475;28;20484;-61
2022/05/21 04:32:54;;;;;;;;;;;23.90;56.60;;;;;;4991216;28;20016;-63
2022/05/21 04:35:20;;;;;;;;;;;23.80;56.60;;;;;;4981314;28;19918;-58
2022/05/21 04:37:45;;;;;;;;;;;23.70;56.00;;;;;;4991885;28;19918;-63
2022/05/21 04:40:13;;;;;;;;;;;23.90;56.20;;;;;;5002012;28;19928;-63
2022/05/21 04:42:38;;;;;;;;;;;23.80;55.70;;;;;;4992805;28;19921;-61
2022/05/21 04:45:04;;;;;;;;;;;23.90;56.00;;;;;;4982660;28;19924;-60
2022/05/21 04:47:30;;;;;;;;;;;24.10;56.30;;;;;;4988863;28;19913;-64
2022/05/21 04:49:55;;;;;;;;;;;24.10;56.20;;;;;;5002315;28;20443;-62
2022/05/21 04:52:21;;;;;;;;;;;24.10;56.10;;;;;;4998416;28;19936;-60
2022/05/21 04:54:46;;;;;;;;;;;24.20;54.80;;;;;;4981597;28;20259;-59
2022/05/21 04:57:12;;;;;;;;;;;24.20;55.60;;;;;;4984428;28;21110;-59
2022/05/21 04:59:37;;;;;;;;;;;24.20;55.30;;;;;;5001306;28;19957;-60
2022/05/21 05:02:03;;;;;;;;;;;24.20;54.50;;;;;;5001465;28;19926;-63
2022/05/21 05:04:28;;;;;;;;;;;23.90;54.60;;;;;;4980826;28;20826;-63
2022/05/21 05:06:53;;;;;;;;;;;24.00;55.30;;;;;;4981749;28;19921;-59
2022/05/21 05:09:23;;;;;;;;;;;24.10;54.90;;;;;;4999129;28;19924;-60
2022/05/21 05:11:49;;;;;;;;;;;23.90;54.60;;;;;;5002154;28;19922;-58
2022/05/21 05:14:14;;;;;;;;;;;24.00;55.00;;;;;;4966989;28;19918;-64
2022/05/21 05:16:40;;;;;;;;;;;24.10;55.40;;;;;;4983009;28;19914;-59
2022/05/21 05:19:05;;;;;;;;;;;24.10;54.20;;;;;;4995972;28;19918;-61
2022/05/21 05:21:31;;;;;;;;;;;24.20;53.90;;;;;;5001778;28;20569;-61
2022/05/21 05:23:56;;;;;;;;;;;24.20;54.90;;;;;;4989262;28;19968;-61
2022/05/21 05:26:25;;;;;;;;;;;24.20;54.70;;;;;;4983746;28;19914;-61
2022/05/21 05:28:50;;;;;;;;;;;24.20;54.50;;;;;;4993517;28;19921;-63
2022/05/21 05:31:16;;;;;;;;;;;24.20;54.60;;;;;;5001977;28;19921;-63
2022/05/21 05:33:41;;;;;;;;;;;24.20;54.20;;;;;;4974641;28;20401;-61
2022/05/21 05:36:07;;;;;;;;;;;24.20;54.30;;;;;;4982363;28;19953;-59
2022/05/21 05:38:32;;;;;;;;;;;24.10;52.90;;;;;;4990382;28;19918;-62
2022/05/21 05:40:57;;;;;;;;;;;24.20;55.00;;;;;;5001881;28;20323;-63
2022/05/21 05:43:23;;;;;;;;;;;24.20;54.80;;;;;;4994056;28;20018;-61
2022/05/21 05:45:49;;;;;;;;;;;24.20;53.80;;;;;;4982536;28;19921;-60
2022/05/21 05:48:14;;;;;;;;;;;24.20;54.30;;;;;;4982889;28;19953;-63
2022/05/21 05:50:40;;;;;;;;;;;24.20;53.70;;;;;;4981854;28;20139;-64
2022/05/21 05:53:05;;;;;;;;;;;24.20;54.50;;;;;;4983682;28;19942;-64
2022/05/21 05:55:31;;;;;;;;;;;24.20;54.30;;;;;;5002549;28;19913;-63
2022/05/21 05:57:57;;;;;;;;;;;24.20;54.30;;;;;;5000348;28;20012;-64
2022/05/21 06:00:22;;;;;;;;;;;24.20;53.90;;;;;;4981917;28;19918;-64
2022/05/21 06:02:59;;;;;;;;;;;24.20;54.40;;;;;;4982180;28;19937;-62
2022/05/21 06:05:26;;;;;;;;;;;24.20;54.00;;;;;;5000603;28;19917;-63
2022/05/21 06:07:52;;;;;;;;;;;23.90;53.10;;;;;;5000727;28;19937;-63
2022/05/21 06:10:18;;;;;;;;;;;23.90;51.10;;;;;;4982242;28;19918;-62
2022/05/21 06:12:44;;;;;;;;;;;23.90;49.80;;;;;;4981935;28;19945;-64
2022/05/21 06:15:10;;;;;;;;;;;23.90;48.50;;;;;;4998394;28;19918;-63
2022/05/21 06:17:36;;;;;;;;;;;23.90;48.70;;;;;;5000430;28;19945;-63
2022/05/21 06:20:01;;;;;;;;;;;23.90;48.10;;;;;;4985619;28;19984;-63
2022/05/21 06:22:26;;;;;;;;;;;23.90;48.40;;;;;;4982366;28;19914;-60
2022/05/21 06:24:52;;;;;;;;;;;23.90;47.40;;;;;;4993072;28;19921;-62
2022/05/21 06:27:17;;;;;;;;;;;23.90;47.90;;;;;;5000565;28;20308;-63
2022/05/21 06:29:43;;;;;;;;;;;23.80;47.20;;;;;;4988798;28;19914;-62
2022/05/21 06:32:08;;;;;;;;;;;23.80;47.20;;;;;;4981728;28;19921;-62
2022/05/21 06:34:37;;;;;;;;;;;23.80;47.30;;;;;;4989717;28;19914;-64
2022/05/21 06:37:03;;;;;;;;;;;23.70;47.40;;;;;;4999974;28;20347;-63
2022/05/21 06:39:30;;;;;;;;;;;23.80;47.30;;;;;;4992593;28;19918;-63
2022/05/21 06:41:55;;;;;;;;;;;23.70;47.50;;;;;;4981489;28;19924;-64
2022/05/21 06:44:20;;;;;;;;;;;23.70;47.80;;;;;;4985660;28;19914;-63
2022/05/21 06:46:47;;;;;;;;;;;23.60;48.30;;;;;;5002548;28;20393;-63
2022/05/21 06:49:13;;;;;;;;;;;23.60;47.60;;;;;;5000169;28;19957;-63
2022/05/21 06:51:38;;;;;;;;;;;23.60;47.50;;;;;;4985350;28;19971;-62
2022/05/21 06:54:04;;;;;;;;;;;23.70;46.80;;;;;;4987671;28;19956;-62
2022/05/21 06:56:29;;;;;;;;;;;23.50;47.80;;;;;;5004728;28;21747;-63
2022/05/21 06:58:55;;;;;;;;;;;23.40;46.90;;;;;;5004122;28;19941;-64
2022/05/21 07:01:20;;;;;;;;;;;23.30;46.90;;;;;;4983718;28;19961;-63
2022/05/21 07:03:46;;;;;;;;;;;23.30;46.50;;;;;;4984681;28;20387;-62
2022/05/21 07:08:55;;;;;;;;;;;23.20;46.40;;;;;;5004180;28;20411;-61
2022/05/21 07:11:20;;;;;;;;;;;23.20;46.60;;;;;;4986688;28;19914;-62
2022/05/21 07:13:46;;;;;;;;;;;23.20;46.00;;;;;;4984690;28;19999;-61
2022/05/21 07:16:11;;;;;;;;;;;23.20;46.00;;;;;;5001993;28;19920;-61
2022/05/21 07:18:37;;;;;;;;;;;23.10;46.10;;;;;;5003931;28;19913;-62
2022/05/21 07:21:03;;;;;;;;;;;22.90;45.20;;;;;;4988109;28;19925;-64
2022/05/21 07:23:28;;;;;;;;;;;22.90;45.60;;;;;;4984472;28;19921;-64
2022/05/21 07:25:55;;;;;;;;;;;22.80;45.70;;;;;;4997615;28;19928;-62
2022/05/21 07:28:20;;;;;;;;;;;22.90;46.10;;;;;;5004393;28;20289;-61
2022/05/21 07:30:47;;;;;;;;;;;22.80;45.80;;;;;;4992666;28;19924;-61
2022/05/21 07:33:14;;;;;;;;;;;22.80;45.70;;;;;;4984614;28;19914;-61
2022/05/21 07:35:39;;;;;;;;;;;22.70;46.00;;;;;;4992993;28;19952;-63
2022/05/21 07:38:05;;;;;;;;;;;22.80;45.40;;;;;;5004037;28;19924;-62
2022/05/21 07:40:30;;;;;;;;;;;22.80;45.60;;;;;;4994990;28;20384;-62
2022/05/21 07:42:56;;;;;;;;;;;22.70;45.70;;;;;;4984457;28;19950;-62
2022/05/21 07:45:21;;;;;;;;;;;22.70;45.70;;;;;;4989771;28;20381;-61
2022/05/21 07:47:47;;;;;;;;;;;22.70;45.60;;;;;;5003734;28;19913;-61
2022/05/21 07:50:14;;;;;;;;;;;22.60;45.60;;;;;;4997976;28;19977;-61
2022/05/21 07:52:40;;;;;;;;;;;22.50;45.30;;;;;;4983842;28;19922;-60
2022/05/21 07:55:05;;;;;;;;;;;22.60;45.40;;;;;;4986263;28;19918;-62
2022/05/21 07:57:31;;;;;;;;;;;22.60;45.70;;;;;;5005561;28;19972;-62
2022/05/21 07:59:56;;;;;;;;;;;22.60;45.60;;;;;;5006950;28;19917;-62
2022/05/21 08:02:22;;;;;;;;;;;22.50;45.20;;;;;;4985142;28;19922;-60
2022/05/21 08:04:47;;;;;;;;;;;22.50;45.10;;;;;;4984376;28;19922;-64
2022/05/21 08:07:13;;;;;;;;;;;22.50;45.80;;;;;;5000244;28;19917;-65
2022/05/21 08:09:38;;;;;;;;;;;22.60;46.60;;;;;;5003507;28;20643;-66
2022/05/21 08:12:04;;;;;;;;;;;22.60;46.50;;;;;;4986691;28;20078;-65
2022/05/21 08:14:29;;;;;;;;;;;22.70;46.00;;;;;;4983956;28;19972;-63
2022/05/21 08:16:55;;;;;;;;;;;22.70;46.00;;;;;;4996691;28;20589;-62
2022/05/21 08:19:20;;;;;;;;;;;22.80;45.70;;;;;;5001377;28;20386;-62
2022/05/21 08:21:46;;;;;;;;;;;22.80;45.70;;;;;;4988008;28;19950;-62
2022/05/21 08:26:59;;;;;;;;;;;22.90;46.00;;;;;;4983625;28;19929;-65
2022/05/21 08:29:27;;;;;;;;;;;22.90;46.10;;;;;;4984229;28;20012;-65
2022/05/21 08:31:52;;;;;;;;;;;22.90;46.20;;;;;;4994872;28;20428;-65
2022/05/21 08:34:18;;;;;;;;;;;22.90;46.00;;;;;;5001810;28;20007;-62
2022/05/21 08:36:43;;;;;;;;;;;22.90;45.60;;;;;;4992452;28;20013;-62
2022/05/21 08:39:09;;;;;;;;;;;22.90;45.90;;;;;;4982958;28;19921;-62
2022/05/21 08:41:35;;;;;;;;;;;22.90;46.20;;;;;;4992158;28;19937;-63
2022/05/21 08:44:01;;;;;;;;;;;22.90;45.90;;;;;;5004111;28;19936;-62
2022/05/21 08:46:46;;;;;;;;;;;23.00;45.80;;;;;;4990260;28;20316;-64
2022/05/21 08:49:24;;;;;;;;;;;22.90;45.60;;;;;;4981192;28;19918;-63
2022/05/21 08:51:52;;;;;;;;;;;22.90;45.50;;;;;;4980016;28;20440;-63
2022/05/21 08:54:19;;;;;;;;;;;22.90;45.30;;;;;;4999824;28;19917;-63
2022/05/21 08:56:44;;;;;;;;;;;22.90;45.50;;;;;;4983871;28;19913;-64
2022/05/21 08:59:10;;;;;;;;;;;22.90;45.50;;;;;;4983881;28;19918;-64
2022/05/21 09:01:35;;;;;;;;;;;22.90;45.30;;;;;;4977474;28;19920;-64
2022/05/21 09:04:01;;;;;;;;;;;22.90;45.80;;;;;;5000972;28;19960;-64
2022/05/21 09:06:38;;;;;;;;;;;22.90;45.80;;;;;;4996503;28;19917;-63
2022/05/21 09:09:07;;;;;;;;;;;22.90;45.40;;;;;;4984615;28;19913;-63
2022/05/21 09:11:46;;;;;;;;;;;22.90;45.60;;;;;;4956853;28;19917;-59
2022/05/21 09:14:30;;;;;;;;;;;22.90;45.40;;;;;;4998207;28;20016;-63
2022/05/21 09:16:55;;;;;;;;;;;22.90;45.40;;;;;;4998322;28;19917;-63
2022/05/21 09:19:24;;;;;;;;;;;22.90;45.50;;;;;;4979802;28;19914;-63
2022/05/21 09:21:55;;;;;;;;;;;22.90;45.30;;;;;;4988321;28;19940;-60
2022/05/21 09:24:37;;;;;;;;;;;22.90;45.00;;;;;;5003002;28;20320;-62
2022/05/21 09:27:03;;;;;;;;;;;22.90;45.20;;;;;;4999609;28;20000;-59
2022/05/21 09:29:31;;;;;;;;;;;22.90;45.20;;;;;;4981555;28;20005;-61
2022/05/21 09:31:57;;;;;;;;;;;23.00;45.80;;;;;;4987266;28;19920;-59
2022/05/21 09:34:29;;;;;;;;;;;23.00;45.80;;;;;;5000524;28;19921;-60
2022/05/21 09:36:54;;;;;;;;;;;22.90;45.70;;;;;;4998594;28;19918;-61
2022/05/21 09:39:32;;;;;;;;;;;22.90;45.80;;;;;;4980622;28;19917;-61
2022/05/21 09:42:07;;;;;;;;;;;22.90;45.90;;;;;;4983725;28;19914;-60
2022/05/21 09:47:23;;;;;;;;;;;23.00;45.70;;;;;;4991652;28;19944;-59
2022/05/21 09:49:59;;;;;;;;;;;22.90;45.60;;;;;;4980185;28;19918;-62
2022/05/21 09:52:25;;;;;;;;;;;22.90;45.70;;;;;;4980228;28;19917;-62
2022/05/21 09:54:51;;;;;;;;;;;22.90;45.40;;;;;;5002373;28;19918;-62
2022/05/21 09:57:24;;;;;;;;;;;22.90;46.00;;;;;;4992046;28;19914;-62
2022/05/21 10:00:02;;;;;;;;;;;22.90;45.60;;;;;;4980523;28;19922;-63
2022/05/21 10:02:35;;;;;;;;;;;22.90;45.10;;;;;;4985292;28;19925;-62
2022/05/21 10:05:00;;;;;;;;;;;22.90;44.90;;;;;;4984949;28;19921;-62
2022/05/21 10:13:12;;;;;;;;;;;22.90;45.60;;;;;;4989009;28;19980;-59
2022/05/21 10:15:39;;;;;;;;;;;22.90;45.40;;;;;;5002343;28;20400;-57
2022/05/21 10:18:26;;;;;;;;;;;22.90;45.40;;;;;;4986120;28;19918;-63
2022/05/21 10:20:54;;;;;;;;;;;22.90;45.80;;;;;;4975399;28;19922;-58
2022/05/21 10:23:34;;;;;;;;;;;22.90;46.10;;;;;;4992753;28;19928;-57
2022/05/21 10:26:12;;;;;;;;;;;22.90;45.60;;;;;;5004596;28;19963;-60
2022/05/21 10:28:49;;;;;;;;;;;22.90;45.50;;;;;;4994251;28;19921;-56
2022/05/21 10:31:24;;;;;;;;;;;22.90;45.20;;;;;;4984440;28;19960;-63
2022/05/21 10:33:52;;;;;;;;;;;22.90;45.30;;;;;;4995795;28;20300;-63
2022/05/21 10:36:33;;;;;;;;;;;22.90;44.90;;;;;;4979323;28;19925;-59
2022/05/21 10:39:06;;;;;;;;;;;22.90;45.10;;;;;;4995601;28;20554;-63
2022/05/21 10:41:42;;;;;;;;;;;22.90;45.10;;;;;;5001102;28;20197;-63
2022/05/21 10:44:11;;;;;;;;;;;23.00;45.30;;;;;;4993477;28;20636;-63
2022/05/21 10:46:56;;;;;;;;;;;23.00;45.30;;;;;;4981899;28;20381;-62
2022/05/21 10:49:41;;;;;;;;;;;23.00;45.10;;;;;;4998963;28;19992;-63
2022/05/21 10:52:06;;;;;;;;;;;22.90;45.20;;;;;;5000202;28;19924;-63
2022/05/21 10:54:44;;;;;;;;;;;23.00;45.30;;;;;;4992265;28;19914;-63
2022/05/21 10:57:10;;;;;;;;;;;23.00;45.00;;;;;;4980149;28;19933;-63
2022/05/21 10:59:54;;;;;;;;;;;22.90;45.20;;;;;;4999837;28;20371;-62
2022/05/21 11:02:29;;;;;;;;;;;23.00;46.10;;;;;;4999794;28;19929;-57
2022/05/21 11:05:00;;;;;;;;;;;22.90;46.00;;;;;;4989724;28;19922;-59
2022/05/21 11:07:34;;;;;;;;;;;23.00;46.50;;;;;;4985677;28;20350;-63
2022/05/21 11:10:02;;;;;;;;;;;23.00;46.80;;;;;;4999546;28;20335;-63
2022/05/21 11:12:30;;;;;;;;;;;23.00;46.60;;;;;;5005099;28;19921;-59
2022/05/21 11:14:56;;;;;;;;;;;22.90;46.60;;;;;;4990605;28;19917;-62
2022/05/21 11:17:30;;;;;;;;;;;22.80;46.70;;;;;;4981620;28;19924;-56
2022/05/21 11:19:57;;;;;;;;;;;22.80;46.30;;;;;;4999305;28;20371;-62
2022/05/21 11:22:37;;;;;;;;;;;22.70;46.30;;;;;;5000665;28;19971;-62
2022/05/21 11:25:12;;;;;;;;;;;22.80;46.30;;;;;;4990028;28;19918;-59
2022/05/21 11:27:42;;;;;;;;;;;22.70;46.30;;;;;;4985780;28;20302;-63
2022/05/21 11:30:08;;;;;;;;;;;22.70;46.50;;;;;;4992653;28;19968;-62
2022/05/21 11:38:33;;;;;;;;;;;22.70;45.20;;;;;;4904914;29;19923;-62
2022/05/21 11:43:56;;;;;;;;;;;22.50;44.60;;;;;;4978207;28;19976;-62
2022/05/21 11:46:26;;;;;;;;;;;22.50;44.40;;;;;;4961051;28;20324;-61
2022/05/21 11:48:51;;;;;;;;;;;22.50;44.70;;;;;;4966214;28;19925;-59
2022/05/21 11:51:17;;;;;;;;;;;22.40;44.20;;;;;;4998838;28;19921;-63
2022/05/21 11:53:44;;;;;;;;;;;22.40;44.40;;;;;;5003302;28;19913;-62
2022/05/21 11:56:10;;;;;;;;;;;22.40;44.60;;;;;;4981155;28;19917;-62
2022/05/21 11:58:54;;;;;;;;;;;22.40;44.80;;;;;;4984331;28;20032;-62
2022/05/21 12:01:41;;;;;;;;;;;22.40;44.80;;;;;;4959539;28;19922;-64
2022/05/21 12:04:07;;;;;;;;;;;22.40;45.80;;;;;;4967840;28;19932;-62
2022/05/21 12:06:38;;;;;;;;;;;22.30;46.20;;;;;;5003922;28;19913;-62
2022/05/21 12:09:09;;;;;;;;;;;22.30;46.50;;;;;;5002912;28;20765;-62
2022/05/21 12:11:39;;;;;;;;;;;22.30;47.60;;;;;;4984879;28;19913;-62
2022/05/21 12:14:21;;;;;;;;;;;22.40;48.10;;;;;;4975352;28;19914;-63
2022/05/21 12:16:48;;;;;;;;;;;22.40;48.80;;;;;;4963819;28;20830;-62
2022/05/21 12:19:33;;;;;;;;;;;22.50;49.00;;;;;;4964927;28;19918;-63
2022/05/21 12:21:59;;;;;;;;;;;22.50;48.00;;;;;;5004027;28;19975;-63
2022/05/21 12:24:35;;;;;;;;;;;22.50;46.70;;;;;;5003186;28;19925;-63
2022/05/21 12:27:05;;;;;;;;;;;22.50;46.80;;;;;;4983328;28;19925;-62
2022/05/21 12:29:31;;;;;;;;;;;22.40;46.00;;;;;;4984524;28;19922;-62
2022/05/21 12:31:57;;;;;;;;;;;22.30;45.40;;;;;;5002565;28;19921;-63
2022/05/21 12:34:26;;;;;;;;;;;22.30;45.30;;;;;;5002555;28;19913;-56
2022/05/21 12:37:02;;;;;;;;;;;22.20;44.90;;;;;;4983719;28;20008;-62
2022/05/21 12:39:33;;;;;;;;;;;22.20;45.40;;;;;;4983602;28;19937;-62
2022/05/21 12:42:04;;;;;;;;;;;22.20;45.30;;;;;;4964331;28;19996;-62
2022/05/21 12:44:40;;;;;;;;;;;22.10;44.90;;;;;;4979126;28;19926;-62
2022/05/21 12:47:09;;;;;;;;;;;22.10;45.20;;;;;;4984635;28;19918;-63
2022/05/21 12:49:34;;;;;;;;;;;22.10;45.30;;;;;;4984316;28;19918;-63
2022/05/21 12:52:00;;;;;;;;;;;22.10;45.30;;;;;;5000737;28;19920;-62
2022/05/21 12:54:26;;;;;;;;;;;22.00;45.00;;;;;;4983482;28;19917;-61
2022/05/21 12:56:51;;;;;;;;;;;22.00;45.20;;;;;;4986724;28;19925;-61
2022/05/21 12:59:24;;;;;;;;;;;22.00;45.30;;;;;;4983497;28;19917;-62
2022/05/21 13:02:09;;;;;;;;;;;22.00;45.50;;;;;;4999467;28;19925;-62
2022/05/21 13:04:38;;;;;;;;;;;22.10;45.60;;;;;;5003336;28;19954;-62
2022/05/21 13:07:04;;;;;;;;;;;22.10;45.70;;;;;;4986799;28;19922;-61
2022/05/21 13:09:30;;;;;;;;;;;22.10;45.80;;;;;;4984169;28;20068;-62
2022/05/21 13:11:56;;;;;;;;;;;22.10;45.50;;;;;;4999097;28;20452;-61
2022/05/21 13:14:23;;;;;;;;;;;22.10;45.60;;;;;;5002231;28;20376;-63
2022/05/21 13:16:52;;;;;;;;;;;22.00;45.20;;;;;;4989210;28;19945;-62
2022/05/21 13:19:21;;;;;;;;;;;22.00;45.40;;;;;;4982492;28;19925;-62
2022/05/21 13:21:50;;;;;;;;;;;22.10;45.90;;;;;;4970312;28;19957;-61
2022/05/21 13:24:22;;;;;;;;;;;22.10;46.40;;;;;;4963629;28;20368;-62
2022/05/21 13:27:00;;;;;;;;;;;22.10;45.70;;;;;;4963347;28;20692;-62
2022/05/21 13:29:26;;;;;;;;;;;22.10;45.30;;;;;;4964686;28;20004;-62
2022/05/21 13:31:51;;;;;;;;;;;22.10;45.40;;;;;;4987326;28;20729;-62
2022/05/21 13:34:21;;;;;;;;;;;22.10;44.80;;;;;;5004196;28;20404;-62
2022/05/21 13:36:53;;;;;;;;;;;22.10;44.40;;;;;;4992862;28;19917;-62
2022/05/21 13:39:29;;;;;;;;;;;22.10;45.10;;;;;;4981454;28;19922;-62
2022/05/21 13:41:57;;;;;;;;;;;22.10;44.90;;;;;;4993632;28;19913;-61
2022/05/21 13:44:25;;;;;;;;;;;22.10;45.20;;;;;;5002813;28;19941;-62
2022/05/21 13:46:52;;;;;;;;;;;22.00;44.40;;;;;;4993241;28;19918;-61
2022/05/21 13:49:19;;;;;;;;;;;22.00;43.90;;;;;;4982626;28;19918;-62
2022/05/21 13:51:45;;;;;;;;;;;21.90;44.10;;;;;;4989860;28;20016;-62
2022/05/21 13:54:10;;;;;;;;;;;22.00;44.90;;;;;;5000972;28;20016;-62
2022/05/21 13:56:39;;;;;;;;;;;22.00;45.40;;;;;;4994069;28;19914;-63
2022/05/21 13:59:04;;;;;;;;;;;22.10;46.10;;;;;;4981858;28;19998;-64
2022/05/21 14:01:30;;;;;;;;;;;22.00;45.40;;;;;;4987867;28;20032;-63
2022/05/21 14:04:04;;;;;;;;;;;22.00;45.50;;;;;;5001147;28;19945;-63
2022/05/21 14:06:29;;;;;;;;;;;22.00;46.50;;;;;;4997143;28;20284;-63
2022/05/21 14:08:58;;;;;;;;;;;22.00;46.50;;;;;;4981883;28;19921;-64
2022/05/21 14:11:24;;;;;;;;;;;22.00;46.30;;;;;;4983849;28;20365;-63
2022/05/21 14:13:56;;;;;;;;;;;22.00;46.40;;;;;;5002614;28;19917;-63
2022/05/21 14:16:23;;;;;;;;;;;22.00;46.40;;;;;;5000556;28;19921;-62
2022/05/21 14:19:01;;;;;;;;;;;22.00;46.80;;;;;;4980975;28;20001;-63
2022/05/21 14:21:27;;;;;;;;;;;22.00;46.80;;;;;;4983892;28;19930;-63
2022/05/21 14:24:11;;;;;;;;;;;22.00;47.30;;;;;;5000426;28;19985;-63
2022/05/21 14:26:37;;;;;;;;;;;22.00;46.80;;;;;;4998932;28;19913;-64
2022/05/21 14:29:21;;;;;;;;;;;22.00;46.60;;;;;;4983040;28;20576;-63
2022/05/21 14:31:47;;;;;;;;;;;22.00;46.80;;;;;;4985949;28;19914;-63
2022/05/21 14:34:12;;;;;;;;;;;22.00;46.70;;;;;;5002263;28;19929;-63
2022/05/21 14:36:39;;;;;;;;;;;21.90;46.80;;;;;;5001156;28;20021;-63
2022/05/21 14:39:04;;;;;;;;;;;22.00;46.70;;;;;;4980697;28;20336;-62
2022/05/21 14:41:33;;;;;;;;;;;21.90;46.40;;;;;;4982967;28;19922;-63
2022/05/21 14:43:59;;;;;;;;;;;21.90;46.10;;;;;;4963410;28;20052;-63
2022/05/21 14:49:09;;;;;;;;;;;21.90;46.20;;;;;;5001506;28;20711;-64
2022/05/21 14:54:20;;;;;;;;;;;21.90;45.70;;;;;;4975565;28;19968;-63